createdAt,value
2022-09-12T00:02:34.425Z,29.56
2022-09-12T00:05:25.567Z,29.59
2022-09-12T00:08:16.038Z,29.65
2022-09-12T00:11:12.102Z,29.84
2022-09-12T00:14:03.515Z,30.02
2022-09-12T00:16:54.298Z,30.15
2022-09-12T00:19:44.673Z,30.26
2022-09-12T00:22:35.480Z,30.26
2022-09-12T00:25:25.456Z,30.46
2022-09-12T00:28:17.030Z,30.55
2022-09-12T00:31:09.499Z,30.66
2022-09-12T00:34:02.204Z,30.71
2022-09-12T00:36:52.289Z,30.60
2022-09-12T00:39:42.730Z,30.67
2022-09-12T00:42:32.929Z,30.72
2022-09-12T00:45:29.261Z,30.78
2022-09-12T00:48:24.532Z,30.91
2022-09-12T00:51:15.191Z,30.93
2022-09-12T00:54:15.468Z,30.91
2022-09-12T00:57:09.128Z,30.97
2022-09-12T01:00:15.134Z,30.96
2022-09-12T01:03:10.564Z,30.94
2022-09-12T01:06:17.561Z,30.94
2022-09-12T01:09:09.918Z,30.99
2022-09-12T01:12:00.507Z,30.98
2022-09-12T01:14:50.773Z,31.02
2022-09-12T01:18:01.072Z,31.07
2022-09-12T01:20:53.033Z,31.22
2022-09-12T01:24:01.515Z,31.28
2022-09-12T01:27:12.973Z,31.29
2022-09-12T01:30:19.500Z,31.39
2022-09-12T01:33:40.076Z,31.40
2022-09-12T01:36:49.600Z,31.37
2022-09-12T01:40:21.600Z,31.43
2022-09-12T01:43:47.160Z,31.43
2022-09-12T01:46:46.822Z,31.48
2022-09-12T01:50:11.468Z,31.46
2022-09-12T01:53:18.641Z,31.48
2022-09-12T01:56:23.764Z,31.62
2022-09-12T01:59:57.501Z,31.75
2022-09-12T02:03:03.716Z,31.79
2022-09-12T02:05:59.203Z,31.79
2022-09-12T02:08:58.667Z,31.83
2022-09-12T02:11:49.131Z,31.88
2022-09-12T02:14:47.162Z,31.89
2022-09-12T02:17:42.529Z,31.91
2022-09-12T02:20:48.085Z,31.99
2022-09-12T02:23:42.412Z,32.09
2022-09-12T02:26:39.097Z,32.15
2022-09-12T02:29:29.635Z,32.21
2022-09-12T02:32:40.382Z,32.22
2022-09-12T02:35:50.988Z,32.31
2022-09-12T02:38:47.268Z,32.21
2022-09-12T02:41:37.438Z,32.23
2022-09-12T02:44:29.888Z,32.37
2022-09-12T02:47:27.399Z,32.37
2022-09-12T02:50:18.035Z,32.53
2022-09-12T02:53:09.921Z,32.57
2022-09-12T02:56:00.084Z,32.57
2022-09-12T02:58:51.445Z,32.61
2022-09-12T03:01:53.791Z,32.47
2022-09-12T03:05:04.564Z,32.63
2022-09-12T03:08:09.996Z,32.55
2022-09-12T03:11:45.849Z,32.58
2022-09-12T03:15:05.965Z,32.63
2022-09-12T03:18:15.843Z,32.75
2022-09-12T03:21:25.370Z,32.87
2022-09-12T03:24:34.606Z,32.93
2022-09-12T03:27:38.131Z,32.95
2022-09-12T03:30:30.507Z,33.04
2022-09-12T03:33:23.117Z,33.15
2022-09-12T03:36:33.129Z,33.24
2022-09-12T03:39:25.643Z,33.16
2022-09-12T03:42:15.194Z,33.28
2022-09-12T03:45:04.747Z,33.26
2022-09-12T03:47:55.023Z,33.36
2022-09-12T03:50:45.339Z,33.40
2022-09-12T03:53:36.750Z,33.47
2022-09-12T03:56:26.682Z,33.49
2022-09-12T03:59:16.873Z,33.49
2022-09-12T04:02:09.326Z,33.47
2022-09-12T04:05:00.269Z,33.55
2022-09-12T04:07:50.714Z,33.54
2022-09-12T04:10:43.729Z,33.64
2022-09-12T04:13:34.289Z,33.55
2022-09-12T04:16:24.424Z,33.41
2022-09-12T04:19:15.097Z,33.29
2022-09-12T04:22:05.169Z,33.36
2022-09-12T04:24:55.850Z,33.48
2022-09-12T04:27:49.053Z,33.50
2022-09-12T04:30:39.405Z,33.59
2022-09-12T04:33:32.206Z,33.64
2022-09-12T04:36:24.246Z,33.65
2022-09-12T04:39:15.096Z,33.82
2022-09-12T04:42:06.105Z,33.88
2022-09-12T04:44:58.218Z,33.94
2022-09-12T04:47:48.781Z,34.08
2022-09-12T04:50:39.197Z,33.99
2022-09-12T04:53:29.520Z,34.13
2022-09-12T04:56:20.466Z,34.21
2022-09-12T04:59:11.040Z,34.19
2022-09-12T05:02:01.562Z,34.25
2022-09-12T05:04:52.663Z,34.26
2022-09-12T05:07:43.033Z,34.28
2022-09-12T05:10:34.394Z,34.26
2022-09-12T05:13:24.967Z,34.10
2022-09-12T05:16:17.368Z,34.05
2022-09-12T05:19:07.310Z,34.03
2022-09-12T05:21:58.229Z,33.97
2022-09-12T05:24:50.660Z,34.04
2022-09-12T05:27:42.832Z,33.98
2022-09-12T05:30:34.339Z,33.91
2022-09-12T05:33:25.261Z,34.01
2022-09-12T05:36:26.312Z,34.22
2022-09-12T05:39:16.562Z,34.28
2022-09-12T05:42:08.681Z,34.30
2022-09-12T05:44:58.938Z,34.39
2022-09-12T05:47:49.610Z,34.36
2022-09-12T05:50:40.394Z,34.42
2022-09-12T05:53:32.498Z,34.45
2022-09-12T05:56:29.693Z,34.50
2022-09-12T05:59:23.065Z,34.59
2022-09-12T06:02:14.362Z,34.64
2022-09-12T06:05:04.176Z,34.55
2022-09-12T06:07:55.592Z,34.36
2022-09-12T06:10:46.638Z,34.30
2022-09-12T06:13:40.214Z,34.29
2022-09-12T06:16:33.774Z,34.38
2022-09-12T06:19:26.478Z,34.53
2022-09-12T06:22:16.310Z,34.63
2022-09-12T06:25:07.371Z,34.69
2022-09-12T06:27:57.455Z,34.71
2022-09-12T06:30:47.874Z,34.72
2022-09-12T06:33:40.141Z,34.56
2022-09-12T06:36:33.063Z,34.42
2022-09-12T06:39:24.981Z,34.34
2022-09-12T06:42:16.245Z,34.25
2022-09-12T06:45:18.610Z,34.21
2022-09-12T06:48:12.255Z,34.22
2022-09-12T06:51:16.200Z,34.22
2022-09-12T06:54:06.914Z,34.26
2022-09-12T06:56:57.458Z,34.24
2022-09-12T06:59:50.621Z,34.35
2022-09-12T07:02:41.447Z,34.35
2022-09-12T07:05:31.969Z,34.32
2022-09-12T07:08:22.160Z,34.30
2022-09-12T07:11:23.981Z,34.33
2022-09-12T07:14:16.775Z,34.29
2022-09-12T07:17:10.688Z,34.30
2022-09-12T07:20:03.248Z,34.36
2022-09-12T07:22:54.095Z,34.41
2022-09-12T07:25:44.603Z,34.45
2022-09-12T07:28:35.696Z,34.44
2022-09-12T07:31:27.367Z,34.53
2022-09-12T07:34:17.352Z,34.44
2022-09-12T07:37:08.425Z,34.38
2022-09-12T07:39:59.503Z,34.39
2022-09-12T07:42:49.695Z,34.28
2022-09-12T07:45:43.796Z,34.36
2022-09-12T07:48:34.307Z,34.34
2022-09-12T07:51:27.617Z,34.38
2022-09-12T07:54:19.212Z,34.27
2022-09-12T07:57:10.140Z,34.18
2022-09-12T08:00:01.040Z,34.10
2022-09-12T08:02:56.612Z,34.04
2022-09-12T08:05:47.534Z,33.97
2022-09-12T08:08:38.724Z,33.96
2022-09-12T08:11:30.613Z,33.88
2022-09-12T08:14:20.364Z,33.79
2022-09-12T08:17:12.091Z,33.73
2022-09-12T08:20:02.323Z,33.66
2022-09-12T08:22:53.124Z,33.58
2022-09-12T08:25:45.247Z,33.57
2022-09-12T08:28:38.026Z,33.54
2022-09-12T08:31:30.456Z,33.49
2022-09-12T08:34:20.962Z,33.50
2022-09-12T08:37:11.330Z,33.41
2022-09-12T08:40:02.139Z,33.39
2022-09-12T08:43:12.104Z,33.34
2022-09-12T08:46:19.724Z,33.29
2022-09-12T08:49:13.668Z,33.21
2022-09-12T08:52:16.576Z,33.22
2022-09-12T08:55:09.172Z,33.15
2022-09-12T08:58:01.911Z,33.10
2022-09-12T09:01:00.306Z,33.11
2022-09-12T09:03:59.007Z,33.07
2022-09-12T09:07:17.834Z,33.02
2022-09-12T09:10:11.614Z,32.96
2022-09-12T09:13:06.989Z,32.91
2022-09-12T09:16:16.978Z,32.91
2022-09-12T09:19:30.491Z,32.84
2022-09-12T09:22:39.840Z,32.81
2022-09-12T09:26:10.659Z,32.86
2022-09-12T09:29:28.218Z,32.81
2022-09-12T09:32:29.374Z,32.79
2022-09-12T09:35:21.564Z,32.73
2022-09-12T09:38:51.087Z,32.72
2022-09-12T09:41:51.302Z,32.66
2022-09-12T09:44:41.940Z,32.60
2022-09-12T09:47:32.624Z,32.57
2022-09-12T09:50:22.869Z,32.59
2022-09-12T09:53:27.906Z,32.53
2022-09-12T09:56:31.337Z,32.55
2022-09-12T09:59:33.069Z,32.50
2022-09-12T10:02:27.868Z,32.34
2022-09-12T10:05:19.653Z,32.42
2022-09-12T10:08:12.976Z,32.43
2022-09-12T10:11:24.566Z,32.40
2022-09-12T10:14:41.042Z,32.43
2022-09-12T10:17:34.805Z,32.36
2022-09-12T10:20:41.484Z,32.31
2022-09-12T10:23:38.862Z,32.29
2022-09-12T10:26:35.380Z,32.30
2022-09-12T10:29:34.563Z,32.23
2022-09-12T10:32:41.420Z,32.23
2022-09-12T10:35:34.928Z,32.18
2022-09-12T10:38:30.819Z,32.22
2022-09-12T10:41:21.222Z,32.19
2022-09-12T10:44:17.830Z,32.16
2022-09-12T10:47:37.330Z,32.18
2022-09-12T10:50:32.505Z,32.10
2022-09-12T10:53:29.916Z,32.11
2022-09-12T10:56:25.078Z,32.08
2022-09-12T10:59:43.847Z,32.09
2022-09-12T11:02:54.628Z,32.08
2022-09-12T11:06:01.877Z,32.06
2022-09-12T11:09:17.603Z,32.09
2022-09-12T11:12:47.092Z,32.14
2022-09-12T11:16:09.158Z,32.07
2022-09-12T11:19:13.600Z,32.08
2022-09-12T11:22:26.717Z,32.06
2022-09-12T11:25:41.645Z,32.11
2022-09-12T11:28:54.001Z,32.12
2022-09-12T11:32:15.088Z,32.11
2022-09-12T11:35:30.929Z,32.03
2022-09-12T11:38:45.979Z,32.05
2022-09-12T11:41:42.804Z,31.93
2022-09-12T11:44:45.494Z,31.96
2022-09-12T11:47:37.688Z,31.94
2022-09-12T11:50:33.222Z,31.95
2022-09-12T11:53:31.417Z,31.96
2022-09-12T11:56:21.887Z,31.94
2022-09-12T11:59:36.242Z,31.96
2022-09-12T12:02:31.619Z,31.95
2022-09-12T12:05:26.769Z,31.93
2022-09-12T12:08:17.332Z,32.00
2022-09-12T12:11:11.894Z,32.04
2022-09-12T12:14:28.599Z,32.07
2022-09-12T12:17:25.603Z,32.04
2022-09-12T12:20:20.900Z,32.08
2022-09-12T12:23:36.686Z,32.09
2022-09-12T12:26:46.879Z,32.14
2022-09-12T12:29:43.396Z,32.13
2022-09-12T12:32:53.206Z,32.13
2022-09-12T12:35:49.962Z,32.14
2022-09-12T12:38:42.442Z,32.10
2022-09-12T12:41:38.181Z,32.16
2022-09-12T12:44:55.800Z,32.18
2022-09-12T12:47:50.972Z,32.18
2022-09-12T12:50:40.972Z,32.19
2022-09-12T12:53:31.357Z,32.11
2022-09-12T12:56:41.535Z,32.15
2022-09-12T12:59:32.742Z,32.03
2022-09-12T13:02:59.295Z,32.19
2022-09-12T13:05:50.570Z,32.20
2022-09-12T13:08:42.877Z,32.19
2022-09-12T13:11:39.151Z,32.23
2022-09-12T13:14:44.803Z,32.17
2022-09-12T13:17:45.543Z,32.12
2022-09-12T13:20:39.468Z,32.18
2022-09-12T13:23:32.114Z,32.11
2022-09-12T13:26:29.239Z,32.14
2022-09-12T13:29:23.308Z,32.19
2022-09-12T13:32:13.447Z,32.22
2022-09-12T13:35:30.656Z,32.20
2022-09-12T13:38:30.855Z,32.20
2022-09-12T13:41:55.106Z,32.19
2022-09-12T13:44:52.914Z,32.19
2022-09-12T13:47:52.542Z,32.20
2022-09-12T13:51:07.179Z,32.21
2022-09-12T13:54:00.022Z,32.23
2022-09-12T13:56:51.197Z,32.11
2022-09-12T13:59:44.082Z,32.14
2022-09-12T14:02:38.319Z,32.13
2022-09-12T14:05:28.919Z,32.13
2022-09-12T14:08:21.140Z,32.13
2022-09-12T14:11:20.803Z,32.14
2022-09-12T14:14:28.749Z,32.14
2022-09-12T14:17:27.481Z,32.15
2022-09-12T14:20:22.082Z,32.12
2022-09-12T14:23:31.810Z,32.15
2022-09-12T14:26:24.910Z,32.11
2022-09-12T14:29:18.573Z,32.14
2022-09-12T14:32:30.246Z,32.14
2022-09-12T14:35:22.592Z,32.11
2022-09-12T14:38:18.924Z,32.15
2022-09-12T14:41:12.114Z,32.13
2022-09-12T14:44:06.375Z,32.11
2022-09-12T14:46:56.756Z,32.11
2022-09-12T14:49:49.195Z,32.03
2022-09-12T14:52:39.857Z,32.06
2022-09-12T14:55:35.549Z,32.07
2022-09-12T14:58:28.319Z,32.04
2022-09-12T15:01:25.327Z,32.03
2022-09-12T15:04:49.504Z,32.04
2022-09-12T15:07:58.306Z,31.99
2022-09-12T15:10:48.589Z,31.98
2022-09-12T15:13:43.313Z,31.99
2022-09-12T15:16:33.507Z,31.94
2022-09-12T15:19:23.473Z,32.01
2022-09-12T15:22:14.932Z,31.90
2022-09-12T15:25:06.555Z,31.89
2022-09-12T15:27:57.574Z,31.83
2022-09-12T15:30:50.874Z,31.81
2022-09-12T15:33:41.139Z,31.77
2022-09-12T15:36:31.657Z,31.77
2022-09-12T15:39:22.166Z,31.82
2022-09-12T15:42:12.654Z,31.80
2022-09-12T15:45:02.984Z,31.79
2022-09-12T15:47:53.548Z,31.74
2022-09-12T15:50:44.399Z,31.76
2022-09-12T15:53:34.292Z,31.79
2022-09-12T15:56:24.877Z,31.80
2022-09-12T15:59:15.115Z,31.79
2022-09-12T16:02:07.129Z,31.77
2022-09-12T16:04:57.489Z,31.78
2022-09-12T16:07:48.018Z,31.79
2022-09-12T16:10:38.355Z,31.80
2022-09-12T16:13:28.613Z,31.79
2022-09-12T16:16:19.124Z,31.77
2022-09-12T16:19:13.187Z,31.80
2022-09-12T16:22:03.515Z,31.80
2022-09-12T16:24:54.029Z,31.81
2022-09-12T16:27:44.709Z,31.74
2022-09-12T16:30:40.160Z,31.80
2022-09-12T16:33:31.280Z,31.77
2022-09-12T16:36:23.418Z,31.76
2022-09-12T16:39:13.686Z,31.76
2022-09-12T16:42:04.996Z,31.76
2022-09-12T16:44:54.720Z,31.74
2022-09-12T16:47:45.057Z,31.75
2022-09-12T16:50:36.202Z,31.72
2022-09-12T16:53:29.068Z,31.69
2022-09-12T16:56:19.128Z,31.71
2022-09-12T16:59:11.115Z,31.71
2022-09-12T17:02:00.525Z,31.70
2022-09-12T17:04:51.080Z,31.69
2022-09-12T17:07:41.377Z,31.64
2022-09-12T17:10:32.394Z,31.65
2022-09-12T17:13:22.322Z,31.63
2022-09-12T17:16:13.722Z,31.61
2022-09-12T17:19:04.049Z,31.60
2022-09-12T17:21:54.908Z,31.64
2022-09-12T17:24:45.295Z,31.64
2022-09-12T17:27:35.395Z,31.64
2022-09-12T17:30:25.023Z,31.62
2022-09-12T17:33:16.021Z,31.53
2022-09-12T17:36:10.697Z,31.42
2022-09-12T17:39:01.188Z,31.29
2022-09-12T17:41:53.173Z,31.25
2022-09-12T17:44:43.007Z,31.19
2022-09-12T17:47:33.194Z,31.12
2022-09-12T17:50:32.124Z,31.13
2022-09-12T17:53:23.443Z,31.06
2022-09-12T17:56:14.579Z,31.04
2022-09-12T17:59:04.720Z,30.99
2022-09-12T18:02:12.632Z,30.98
2022-09-12T18:05:07.024Z,30.97
2022-09-12T18:07:56.922Z,30.96
2022-09-12T18:10:47.446Z,30.95
2022-09-12T18:13:37.624Z,30.94
2022-09-12T18:16:29.847Z,30.92
2022-09-12T18:19:20.013Z,30.92
2022-09-12T18:22:10.851Z,30.88
2022-09-12T18:25:01.072Z,30.90
2022-09-12T18:27:50.530Z,30.88
2022-09-12T18:30:43.251Z,30.89
2022-09-12T18:33:34.315Z,30.88
2022-09-12T18:36:24.214Z,30.86
2022-09-12T18:39:14.526Z,30.86
2022-09-12T18:42:04.552Z,30.85
2022-09-12T18:44:55.191Z,30.84
2022-09-12T18:47:44.968Z,30.84
2022-09-12T18:50:35.177Z,30.82
2022-09-12T18:53:25.228Z,30.79
2022-09-12T18:56:16.372Z,30.77
2022-09-12T18:59:06.900Z,30.78
2022-09-12T19:01:57.118Z,30.75
2022-09-12T19:04:47.475Z,30.73
2022-09-12T19:07:37.298Z,30.71
2022-09-12T19:10:27.634Z,30.66
2022-09-12T19:13:18.875Z,30.66
2022-09-12T19:16:11.241Z,30.69
2022-09-12T19:19:03.951Z,30.66
2022-09-12T19:21:54.884Z,30.68
2022-09-12T19:24:45.078Z,30.67
2022-09-12T19:27:35.178Z,30.67
2022-09-12T19:30:25.243Z,30.69
2022-09-12T19:33:15.944Z,30.62
2022-09-12T19:36:21.950Z,30.64
2022-09-12T19:39:20.904Z,30.66
2022-09-12T19:42:10.823Z,30.62
2022-09-12T19:45:00.645Z,30.60
2022-09-12T19:47:50.589Z,30.60
2022-09-12T19:50:41.118Z,30.59
2022-09-12T19:53:32.165Z,30.59
2022-09-12T19:56:21.780Z,30.57
2022-09-12T19:59:12.629Z,30.56
2022-09-12T20:02:05.123Z,30.58
2022-09-12T20:04:55.636Z,30.56
2022-09-12T20:07:45.737Z,30.53
2022-09-12T20:10:35.851Z,30.49
2022-09-12T20:13:26.170Z,30.52
2022-09-12T20:16:22.330Z,30.47
2022-09-12T20:19:12.695Z,30.48
2022-09-12T20:22:02.753Z,30.46
2022-09-12T20:24:52.615Z,30.47
2022-09-12T20:27:42.567Z,30.48
2022-09-12T20:30:32.594Z,30.44
2022-09-12T20:33:22.733Z,30.45
2022-09-12T20:36:19.249Z,30.45
2022-09-12T20:39:10.104Z,30.44
2022-09-12T20:42:00.406Z,30.46
2022-09-12T20:44:50.992Z,30.45
2022-09-12T20:47:41.012Z,30.39
2022-09-12T20:50:31.154Z,30.40
2022-09-12T20:53:21.355Z,30.39
2022-09-12T20:56:12.000Z,30.40
2022-09-12T20:59:04.428Z,30.38
2022-09-12T21:01:55.042Z,30.42
2022-09-12T21:04:45.051Z,30.42
2022-09-12T21:07:34.303Z,30.40
2022-09-12T21:10:24.348Z,30.38
2022-09-12T21:13:17.585Z,30.37
2022-09-12T21:16:10.011Z,30.37
2022-09-12T21:19:01.000Z,30.37
2022-09-12T21:21:51.061Z,30.40
2022-09-12T21:24:41.162Z,30.35
2022-09-12T21:27:32.023Z,30.33
2022-09-12T21:30:22.266Z,30.34
2022-09-12T21:33:13.112Z,30.32
2022-09-12T21:36:07.469Z,30.31
2022-09-12T21:39:01.971Z,30.24
2022-09-12T21:41:51.853Z,30.25
2022-09-12T21:44:42.302Z,30.26
2022-09-12T21:47:31.975Z,30.31
2022-09-12T21:50:22.820Z,30.27
2022-09-12T21:53:12.592Z,30.29
2022-09-12T21:56:08.447Z,30.24
2022-09-12T21:58:58.486Z,30.26
2022-09-12T22:02:10.210Z,30.24
2022-09-12T22:05:00.378Z,30.23
2022-09-12T22:07:50.326Z,30.25
2022-09-12T22:10:41.556Z,30.23
2022-09-12T22:13:33.424Z,30.20
2022-09-12T22:16:24.218Z,30.20
2022-09-12T22:19:16.468Z,30.19
2022-09-12T22:22:24.846Z,30.17
2022-09-12T22:25:15.603Z,30.19
2022-09-12T22:28:05.130Z,30.13
2022-09-12T22:30:56.113Z,30.15
2022-09-12T22:33:49.411Z,30.11
2022-09-12T22:36:39.411Z,30.15
2022-09-12T22:39:30.611Z,30.13
2022-09-12T22:42:24.065Z,30.15
2022-09-12T22:45:15.825Z,30.12
2022-09-12T22:48:09.239Z,30.13
2022-09-12T22:50:59.593Z,30.12
2022-09-12T22:53:51.176Z,30.12
2022-09-12T22:56:42.168Z,30.11
2022-09-12T22:59:32.644Z,30.11
2022-09-12T23:02:24.649Z,30.12
2022-09-12T23:05:16.124Z,30.12
2022-09-12T23:08:09.012Z,30.14
2022-09-12T23:11:14.483Z,30.12
2022-09-12T23:14:04.667Z,30.16
2022-09-12T23:16:54.652Z,30.16
2022-09-12T23:19:44.750Z,30.14
2022-09-12T23:22:34.933Z,30.13
2022-09-12T23:25:25.654Z,30.14
2022-09-12T23:28:16.291Z,30.16
2022-09-12T23:31:06.848Z,30.15
2022-09-12T23:33:58.360Z,30.16
2022-09-12T23:36:48.002Z,30.16
2022-09-12T23:39:38.924Z,30.15
2022-09-12T23:42:29.142Z,30.16
2022-09-12T23:45:19.375Z,30.17
2022-09-12T23:48:10.237Z,30.14
2022-09-12T23:51:00.620Z,30.08
2022-09-12T23:53:50.632Z,30.11
2022-09-12T23:56:40.664Z,30.12
2022-09-12T23:59:32.419Z,30.15
